createdAt,value
2023-04-11T00:01:34.591Z,19.30
2023-04-11T00:04:02.094Z,20.70
2023-04-11T00:06:29.225Z,19.02
2023-04-11T00:08:56.980Z,21.38
2023-04-11T00:11:24.298Z,18.83
2023-04-11T00:13:51.181Z,20.15
2023-04-11T00:16:19.586Z,19.95
2023-04-11T00:18:47.323Z,20.40
2023-04-11T00:21:14.164Z,21.10
2023-04-11T00:23:41.020Z,20.00
2023-04-11T00:26:08.368Z,22.08
2023-04-11T00:28:36.018Z,22.13
2023-04-11T00:31:02.861Z,20.80
2023-04-11T00:33:29.780Z,22.40
2023-04-11T00:35:56.748Z,21.58
2023-04-11T00:38:23.694Z,20.52
2023-04-11T00:40:50.680Z,20.73
2023-04-11T00:43:17.537Z,21.45
2023-04-11T00:45:44.532Z,20.90
2023-04-11T00:48:11.543Z,21.30
2023-04-11T00:50:44.840Z,20.90
2023-04-11T00:53:12.485Z,21.08
2023-04-11T00:55:42.202Z,20.80
2023-04-11T00:58:09.132Z,19.40
2023-04-11T01:00:36.005Z,18.30
2023-04-11T01:03:02.972Z,18.95
2023-04-11T01:05:31.407Z,18.88
2023-04-11T01:07:58.746Z,18.02
2023-04-11T01:10:28.957Z,16.50
2023-04-11T01:12:57.164Z,16.70
2023-04-11T01:15:24.020Z,16.75
2023-04-11T01:17:55.641Z,15.20
2023-04-11T01:20:22.935Z,15.68
2023-04-11T01:22:50.203Z,15.05
2023-04-11T01:25:19.034Z,15.27
2023-04-11T01:27:45.837Z,15.68
2023-04-11T01:30:12.853Z,15.32
2023-04-11T01:32:39.843Z,16.42
2023-04-11T01:35:07.495Z,15.45
2023-04-11T01:37:34.486Z,16.60
2023-04-11T01:40:01.992Z,17.90
2023-04-11T01:42:30.174Z,18.38
2023-04-11T01:44:57.071Z,18.00
2023-04-11T01:47:24.154Z,19.08
2023-04-11T01:49:50.987Z,18.45
2023-04-11T01:52:17.826Z,22.23
2023-04-11T01:54:44.742Z,19.55
2023-04-11T01:57:11.672Z,19.80
2023-04-11T01:59:38.489Z,19.83
2023-04-11T02:02:08.024Z,18.70
2023-04-11T02:04:35.621Z,18.52
2023-04-11T02:07:02.492Z,18.90
2023-04-11T02:09:29.371Z,19.77
2023-04-11T02:11:59.608Z,18.48
2023-04-11T02:14:26.486Z,20.55
2023-04-11T02:16:55.068Z,19.67
2023-04-11T02:19:26.132Z,20.15
2023-04-11T02:21:53.160Z,18.60
2023-04-11T02:24:19.968Z,20.05
2023-04-11T02:26:46.809Z,19.15
2023-04-11T02:29:13.678Z,20.10
2023-04-11T02:31:40.735Z,20.40
2023-04-11T02:34:07.743Z,22.30
2023-04-11T02:36:34.836Z,23.35
2023-04-11T02:39:01.768Z,21.27
2023-04-11T02:41:28.721Z,20.50
2023-04-11T02:43:55.634Z,20.42
2023-04-11T02:46:22.767Z,19.90
2023-04-11T02:48:49.708Z,21.83
2023-04-11T02:51:16.581Z,21.52
2023-04-11T02:53:43.490Z,21.88
2023-04-11T02:56:10.892Z,21.00
2023-04-11T02:58:42.127Z,20.38
2023-04-11T03:01:11.918Z,20.73
2023-04-11T03:03:39.045Z,19.65
2023-04-11T03:06:09.240Z,20.88
2023-04-11T03:08:37.446Z,21.80
2023-04-11T03:11:04.876Z,21.33
2023-04-11T03:13:32.097Z,20.25
2023-04-11T03:15:59.018Z,20.52
2023-04-11T03:18:26.006Z,18.90
2023-04-11T03:20:52.867Z,20.42
2023-04-11T03:23:19.688Z,20.10
2023-04-11T03:25:48.054Z,19.60
2023-04-11T03:28:15.579Z,20.00
2023-04-11T03:30:42.743Z,19.88
2023-04-11T03:33:09.973Z,20.33
2023-04-11T03:35:37.363Z,20.60
2023-04-11T03:38:04.212Z,20.25
2023-04-11T03:40:33.258Z,20.63
2023-04-11T03:43:04.307Z,21.48
2023-04-11T03:45:31.753Z,20.98
2023-04-11T03:47:58.643Z,21.35
2023-04-11T03:50:25.584Z,21.42
2023-04-11T03:52:52.474Z,19.48
2023-04-11T03:55:20.524Z,19.48
2023-04-11T03:57:47.416Z,21.42
2023-04-11T04:00:14.906Z,21.05
2023-04-11T04:02:42.265Z,22.35
2023-04-11T04:05:09.582Z,21.73
2023-04-11T04:07:38.778Z,22.33
2023-04-11T04:10:06.200Z,20.83
2023-04-11T04:12:35.693Z,22.52
2023-04-11T04:15:02.598Z,21.13
2023-04-11T04:17:29.498Z,22.60
2023-04-11T04:19:56.357Z,24.52
2023-04-11T04:22:23.878Z,24.33
2023-04-11T04:24:51.849Z,24.55
2023-04-11T04:27:18.717Z,27.63
2023-04-11T04:29:52.393Z,30.23
2023-04-11T04:32:28.871Z,31.27
2023-04-11T04:34:56.223Z,31.60
2023-04-11T04:37:24.485Z,27.55
2023-04-11T04:39:56.064Z,25.02
2023-04-11T04:42:25.747Z,26.25
2023-04-11T04:44:55.759Z,24.98
2023-04-11T04:47:31.392Z,25.23
2023-04-11T04:49:58.539Z,24.23
2023-04-11T04:52:27.399Z,23.30
2023-04-11T04:55:01.671Z,23.23
2023-04-11T04:57:29.607Z,24.67
2023-04-11T04:59:58.812Z,24.33
2023-04-11T05:02:26.892Z,24.67
2023-04-11T05:04:54.684Z,24.27
2023-04-11T05:07:21.662Z,23.80
2023-04-11T05:09:48.746Z,22.77
2023-04-11T05:12:16.253Z,21.30
2023-04-11T05:14:43.256Z,21.70
2023-04-11T05:17:10.117Z,21.88
2023-04-11T05:19:36.997Z,19.95
2023-04-11T05:22:03.870Z,22.38
2023-04-11T05:24:30.724Z,22.00
2023-04-11T05:26:58.340Z,21.05
2023-04-11T05:29:25.202Z,22.88
2023-04-11T05:31:52.132Z,22.23
2023-04-11T05:34:18.981Z,21.17
2023-04-11T05:36:47.288Z,22.73
2023-04-11T05:39:14.136Z,21.23
2023-04-11T05:41:43.491Z,22.80
2023-04-11T05:44:10.396Z,22.20
2023-04-11T05:46:39.685Z,20.70
2023-04-11T05:49:06.583Z,21.17
2023-04-11T05:51:33.431Z,21.50
2023-04-11T05:54:00.280Z,22.45
2023-04-11T05:56:27.115Z,20.70
2023-04-11T05:58:56.819Z,19.85
2023-04-11T06:01:24.039Z,19.60
2023-04-11T06:03:51.034Z,19.30
2023-04-11T06:06:18.117Z,18.73
2023-04-11T06:08:47.468Z,17.65
2023-04-11T06:11:14.434Z,17.58
2023-04-11T06:13:41.355Z,17.90
2023-04-11T06:16:08.471Z,18.80
2023-04-11T06:18:35.366Z,17.55
2023-04-11T06:21:02.184Z,17.67
2023-04-11T06:23:29.094Z,18.40
2023-04-11T06:25:55.958Z,18.55
2023-04-11T06:28:25.430Z,17.60
2023-04-11T06:30:52.549Z,18.60
2023-04-11T06:33:21.964Z,19.50
2023-04-11T06:35:54.109Z,18.20
2023-04-11T06:38:20.955Z,17.60
2023-04-11T06:40:48.907Z,16.98
2023-04-11T06:43:15.786Z,18.83
2023-04-11T06:45:44.832Z,18.02
2023-04-11T06:48:12.531Z,18.98
2023-04-11T06:50:39.752Z,18.73
2023-04-11T06:53:06.628Z,18.50
2023-04-11T06:55:33.450Z,17.58
2023-04-11T06:58:01.231Z,17.42
2023-04-11T07:00:28.202Z,15.77
2023-04-11T07:02:55.227Z,15.18
2023-04-11T07:05:22.352Z,16.48
2023-04-11T07:07:49.148Z,16.73
2023-04-11T07:10:16.378Z,16.30
2023-04-11T07:12:43.257Z,16.50
2023-04-11T07:15:12.619Z,16.60
2023-04-11T07:17:41.703Z,15.25
2023-04-11T07:20:09.897Z,15.20
2023-04-11T07:22:36.915Z,16.27
2023-04-11T07:25:10.593Z,14.80
2023-04-11T07:27:37.374Z,14.27
2023-04-11T07:30:04.880Z,12.90
2023-04-11T07:32:31.749Z,14.32
2023-04-11T07:34:59.801Z,14.52
2023-04-11T07:37:27.055Z,12.95
2023-04-11T07:39:53.900Z,13.95
2023-04-11T07:42:20.754Z,14.00
2023-04-11T07:44:48.772Z,12.63
2023-04-11T07:47:15.867Z,13.48
2023-04-11T07:49:42.701Z,14.00
2023-04-11T07:52:10.109Z,12.95
2023-04-11T07:54:38.202Z,12.70
2023-04-11T07:57:05.114Z,14.07
2023-04-11T07:59:31.974Z,11.98
2023-04-11T08:02:02.364Z,11.40
2023-04-11T08:04:33.779Z,10.60
2023-04-11T08:07:01.002Z,10.07
2023-04-11T08:09:27.950Z,10.55
2023-04-11T08:11:56.846Z,10.82
2023-04-11T08:14:23.933Z,10.70
2023-04-11T08:16:53.054Z,10.57
2023-04-11T08:19:21.133Z,10.77
2023-04-11T08:21:48.250Z,10.32
2023-04-11T08:24:15.097Z,10.65
2023-04-11T08:26:41.973Z,9.82
2023-04-11T08:29:11.490Z,10.90
2023-04-11T08:31:43.572Z,10.27
2023-04-11T08:36:44.723Z,9.82
2023-04-11T08:39:12.744Z,10.60
2023-04-11T08:41:39.916Z,10.18
2023-04-11T08:44:11.856Z,10.30
2023-04-11T08:46:42.284Z,10.13
2023-04-11T08:49:11.729Z,10.85
2023-04-11T08:51:38.791Z,9.98
2023-04-11T08:54:06.417Z,10.88
2023-04-11T08:56:35.072Z,10.20
2023-04-11T08:59:02.690Z,10.52
2023-04-11T09:01:34.099Z,10.68
2023-04-11T09:04:05.258Z,10.93
2023-04-11T09:06:33.799Z,9.67
2023-04-11T09:09:05.296Z,10.27
2023-04-11T09:11:51.329Z,12.25
2023-04-11T09:14:18.178Z,9.32
2023-04-11T09:17:01.000Z,10.13
2023-04-11T09:19:29.302Z,9.70
2023-04-11T09:22:00.573Z,9.07
2023-04-11T09:24:28.440Z,10.77
2023-04-11T09:27:10.415Z,10.20
2023-04-11T09:29:39.433Z,10.10
2023-04-11T09:32:06.911Z,9.32
2023-04-11T09:34:37.533Z,9.45
2023-04-11T09:37:04.697Z,8.77
2023-04-11T09:39:32.688Z,8.98
2023-04-11T09:41:59.661Z,10.45
2023-04-11T09:44:37.656Z,7.82
2023-04-11T09:47:05.066Z,7.72
2023-04-11T09:49:34.222Z,7.93
2023-04-11T09:52:02.093Z,6.95
2023-04-11T09:54:29.575Z,7.82
2023-04-11T09:56:59.738Z,7.15
2023-04-11T09:59:26.977Z,6.65
2023-04-11T10:01:57.953Z,7.18
2023-04-11T10:04:28.195Z,6.95
2023-04-11T10:07:14.468Z,6.60
2023-04-11T10:09:43.073Z,6.13
2023-04-11T10:12:10.045Z,5.68
2023-04-11T10:14:36.849Z,6.03
2023-04-11T10:17:15.293Z,6.22
2023-04-11T10:19:44.763Z,6.32
2023-04-11T10:22:40.655Z,6.25
2023-04-11T10:25:24.674Z,6.93
2023-04-11T10:28:01.512Z,7.05
2023-04-11T10:30:48.794Z,6.97
2023-04-11T10:33:17.970Z,6.40
2023-04-11T10:36:07.420Z,6.95
2023-04-11T10:38:37.590Z,6.07
2023-04-11T10:41:19.077Z,7.78
2023-04-11T10:43:46.657Z,7.18
2023-04-11T10:46:24.761Z,6.43
2023-04-11T10:48:52.838Z,6.95
2023-04-11T10:51:25.026Z,6.55
2023-04-11T10:53:52.678Z,7.13
2023-04-11T10:56:49.020Z,7.00
2023-04-11T10:59:36.987Z,7.50
2023-04-11T11:02:04.005Z,7.30
2023-04-11T11:04:36.103Z,6.57
2023-04-11T11:09:35.481Z,6.00
2023-04-11T11:12:10.144Z,6.93
2023-04-11T11:14:38.049Z,6.22
2023-04-11T11:17:07.710Z,7.40
2023-04-11T11:19:35.807Z,6.13
2023-04-11T11:22:06.799Z,6.40
2023-04-11T11:24:33.723Z,6.65
2023-04-11T11:27:00.969Z,5.82
2023-04-11T11:29:34.015Z,6.57
2023-04-11T11:32:03.935Z,5.93
2023-04-11T11:34:35.253Z,6.15
2023-04-11T11:37:06.705Z,6.22
2023-04-11T11:39:34.657Z,5.88
2023-04-11T11:42:01.847Z,6.68
2023-04-11T11:44:30.433Z,6.00
2023-04-11T11:47:06.357Z,5.95
2023-04-11T11:49:59.496Z,6.50
2023-04-11T11:52:40.797Z,5.70
2023-04-11T11:55:11.188Z,6.13
2023-04-11T11:57:44.607Z,6.63
2023-04-11T12:00:12.183Z,6.20
2023-04-11T12:02:40.326Z,5.85
2023-04-11T12:05:08.582Z,6.07
2023-04-11T12:07:37.987Z,5.70
2023-04-11T12:10:09.544Z,6.15
2023-04-11T12:12:37.956Z,5.80
2023-04-11T12:15:14.961Z,6.47
2023-04-11T12:17:42.356Z,5.65
2023-04-11T12:20:10.852Z,6.82
2023-04-11T12:22:38.327Z,6.20
2023-04-11T12:25:12.334Z,5.93
2023-04-11T12:27:41.606Z,5.95
2023-04-11T12:30:09.584Z,5.18
2023-04-11T12:32:36.887Z,5.72
2023-04-11T12:35:05.315Z,6.50
2023-04-11T12:37:32.834Z,5.70
2023-04-11T12:39:59.777Z,6.97
2023-04-11T12:42:27.474Z,5.43
2023-04-11T12:44:54.881Z,5.53
2023-04-11T12:47:24.233Z,5.40
2023-04-11T12:49:51.282Z,5.65
2023-04-11T12:52:18.214Z,6.38
2023-04-11T12:54:45.084Z,5.45
2023-04-11T12:57:12.605Z,5.82
2023-04-11T12:59:39.570Z,5.95
2023-04-11T13:02:06.920Z,6.18
2023-04-11T13:04:33.906Z,5.65
2023-04-11T13:07:01.644Z,6.80
2023-04-11T13:09:34.149Z,6.22
2023-04-11T13:12:04.331Z,6.13
2023-04-11T13:14:31.340Z,6.38
2023-04-11T13:16:58.279Z,6.50
2023-04-11T13:19:25.662Z,6.38
2023-04-11T13:21:52.616Z,6.15
2023-04-11T13:24:19.488Z,5.85
2023-04-11T13:26:46.568Z,6.85
2023-04-11T13:29:13.563Z,6.57
2023-04-11T13:31:40.512Z,6.15
2023-04-11T13:34:08.903Z,6.65
2023-04-11T13:36:35.937Z,7.10
2023-04-11T13:39:02.941Z,7.80
2023-04-11T13:41:31.955Z,6.38
2023-04-11T13:43:58.886Z,9.23
2023-04-11T13:46:26.191Z,15.40
2023-04-11T13:48:53.078Z,15.07
2023-04-11T13:51:19.956Z,17.35
2023-04-11T13:53:49.319Z,18.15
2023-04-11T13:56:16.338Z,16.05
2023-04-11T13:58:45.742Z,16.27
2023-04-11T14:01:15.574Z,14.35
2023-04-11T14:03:42.871Z,18.35
2023-04-11T14:06:10.016Z,19.05
2023-04-11T14:08:39.539Z,18.40
2023-04-11T14:11:06.692Z,15.23
2023-04-11T14:13:33.631Z,12.98
2023-04-11T14:16:08.948Z,14.00
2023-04-11T14:18:36.633Z,13.55
2023-04-11T14:21:08.183Z,14.02
2023-04-11T14:23:35.075Z,15.13
2023-04-11T14:26:01.954Z,14.50
2023-04-11T14:28:28.861Z,13.20
2023-04-11T14:30:57.081Z,13.77
2023-04-11T14:33:24.240Z,15.25
2023-04-11T14:35:51.323Z,15.50
2023-04-11T14:38:18.333Z,15.15
2023-04-11T14:40:45.200Z,16.45
2023-04-11T14:43:17.290Z,16.60
2023-04-11T14:45:44.186Z,14.23
2023-04-11T14:48:11.448Z,14.30
2023-04-11T14:50:38.287Z,14.38
2023-04-11T14:53:05.248Z,13.98
2023-04-11T14:55:32.089Z,14.02
2023-04-11T14:57:59.046Z,13.88
2023-04-11T15:00:27.062Z,12.63
2023-04-11T15:02:55.711Z,13.18
2023-04-11T15:05:23.467Z,14.60
2023-04-11T15:07:51.998Z,12.15
2023-04-11T15:10:23.241Z,13.00
2023-04-11T15:12:50.422Z,12.02
2023-04-11T15:15:17.326Z,11.80
2023-04-11T15:17:48.145Z,11.57
2023-04-11T15:20:17.630Z,11.48
2023-04-11T15:22:46.509Z,12.48
2023-04-11T15:25:16.797Z,12.10
2023-04-11T15:27:44.029Z,13.20
2023-04-11T15:30:11.489Z,12.45
2023-04-11T15:32:44.964Z,11.20
2023-04-11T15:35:12.349Z,10.07
2023-04-11T15:37:39.362Z,10.10
2023-04-11T15:40:07.168Z,8.55
2023-04-11T15:42:35.524Z,7.00
2023-04-11T15:45:02.808Z,7.07
2023-04-11T15:47:30.447Z,6.10
2023-04-11T15:49:59.080Z,5.20
2023-04-11T15:52:26.464Z,5.00
2023-04-11T15:54:53.371Z,3.70
2023-04-11T15:57:20.481Z,3.83
2023-04-11T15:59:47.887Z,2.97
2023-04-11T16:02:15.713Z,2.80
2023-04-11T16:04:44.736Z,3.00
2023-04-11T16:07:19.360Z,3.50
2023-04-11T16:12:13.608Z,4.47
2023-04-11T16:14:40.695Z,3.35
2023-04-11T16:17:07.580Z,2.50
2023-04-11T16:19:34.405Z,2.78
2023-04-11T16:22:01.279Z,2.42
2023-04-11T16:24:31.636Z,1.98
2023-04-11T16:26:58.561Z,2.28
2023-04-11T16:29:25.529Z,2.00
2023-04-11T16:31:52.477Z,2.25
2023-04-11T16:34:19.615Z,2.10
2023-04-11T16:36:46.534Z,2.20
2023-04-11T16:39:13.750Z,2.35
2023-04-11T16:41:40.691Z,2.90
2023-04-11T16:44:11.529Z,2.80
2023-04-11T16:46:39.445Z,2.50
2023-04-11T16:49:06.550Z,2.63
2023-04-11T16:51:33.562Z,2.92
2023-04-11T16:54:02.356Z,2.55
2023-04-11T16:56:31.417Z,2.70
2023-04-11T16:58:58.581Z,3.33
2023-04-11T17:01:27.837Z,4.07
2023-04-11T17:03:55.079Z,3.45
2023-04-11T17:06:22.430Z,3.17
2023-04-11T17:08:49.457Z,3.10
2023-04-11T17:11:16.332Z,2.30
2023-04-11T17:13:46.327Z,2.25
2023-04-11T17:16:13.811Z,2.20
2023-04-11T17:18:41.086Z,2.67
2023-04-11T17:21:08.242Z,2.45
2023-04-11T17:23:56.562Z,2.75
2023-04-11T17:26:23.526Z,2.97
2023-04-11T17:28:50.447Z,3.70
2023-04-11T17:31:18.954Z,3.55
2023-04-11T17:33:46.493Z,3.47
2023-04-11T17:36:13.615Z,3.33
2023-04-11T17:38:42.218Z,2.88
2023-04-11T17:43:39.284Z,3.78
2023-04-11T17:46:07.498Z,4.60
2023-04-11T17:48:34.824Z,4.20
2023-04-11T17:51:04.556Z,4.50
2023-04-11T17:53:31.713Z,5.00
2023-04-11T17:56:29.408Z,5.10
2023-04-11T17:58:56.485Z,5.25
2023-04-11T18:01:24.810Z,5.35
2023-04-11T18:03:52.025Z,5.57
2023-04-11T18:06:19.326Z,4.95
2023-04-11T18:11:16.122Z,4.70
2023-04-11T18:13:43.887Z,4.72
2023-04-11T18:16:11.481Z,4.28
2023-04-11T18:18:38.630Z,5.18
2023-04-11T18:21:07.533Z,5.20
2023-04-11T18:23:35.309Z,5.75
2023-04-11T18:26:02.244Z,5.82
2023-04-11T18:28:31.806Z,6.57
2023-04-11T18:30:58.680Z,6.45
2023-04-11T18:33:26.135Z,6.80
2023-04-11T18:35:53.286Z,7.20
2023-04-11T18:38:20.610Z,6.20
2023-04-11T18:40:48.798Z,6.07
2023-04-11T18:43:16.008Z,5.60
2023-04-11T18:45:43.472Z,6.57
2023-04-11T18:48:10.764Z,6.03
2023-04-11T18:50:39.023Z,7.30
2023-04-11T18:53:09.935Z,7.00
2023-04-11T18:55:41.466Z,7.85
2023-04-11T18:58:09.784Z,6.95
2023-04-11T19:00:39.134Z,6.43
2023-04-11T19:03:07.191Z,7.25
2023-04-11T19:05:34.673Z,7.00
2023-04-11T19:08:01.982Z,6.78
2023-04-11T19:10:29.240Z,5.68
2023-04-11T19:12:56.195Z,6.25
2023-04-11T19:15:23.297Z,6.78
2023-04-11T19:17:50.601Z,6.63
2023-04-11T19:20:19.139Z,7.20
2023-04-11T19:22:46.636Z,7.07
2023-04-11T19:25:14.762Z,7.10
2023-04-11T19:27:42.578Z,7.68
2023-04-11T19:30:11.245Z,7.35
2023-04-11T19:32:41.041Z,7.45
2023-04-11T19:35:11.879Z,7.75
2023-04-11T19:37:39.319Z,6.57
2023-04-11T19:40:16.654Z,6.85
2023-04-11T19:42:44.676Z,6.63
2023-04-11T19:45:11.965Z,6.78
2023-04-11T19:47:40.393Z,7.65
2023-04-11T19:50:13.137Z,7.65
2023-04-11T19:52:41.512Z,7.20
2023-04-11T19:55:09.475Z,7.88
2023-04-11T19:57:39.025Z,7.25
2023-04-11T20:00:14.455Z,8.25
2023-04-11T20:02:46.056Z,8.07
2023-04-11T20:05:19.256Z,8.32
2023-04-11T20:07:46.849Z,8.60
2023-04-11T20:10:14.574Z,9.10
2023-04-11T20:12:41.699Z,8.45
2023-04-11T20:15:09.506Z,9.75
2023-04-11T20:17:36.515Z,8.65
2023-04-11T20:20:06.375Z,8.73
2023-04-11T20:22:33.422Z,8.73
2023-04-11T20:25:00.528Z,8.55
2023-04-11T20:27:29.610Z,9.05
2023-04-11T20:29:56.850Z,8.55
2023-04-11T20:32:23.804Z,8.73
2023-04-11T20:34:50.942Z,8.13
2023-04-11T20:37:19.579Z,8.73
2023-04-11T20:39:46.797Z,8.80
2023-04-11T20:42:16.324Z,9.35
2023-04-11T20:44:43.849Z,8.45
2023-04-11T20:47:10.715Z,8.38
2023-04-11T20:49:37.650Z,8.43
2023-04-11T20:52:04.989Z,8.40
2023-04-11T20:54:31.836Z,8.68
2023-04-11T20:56:58.685Z,8.60
2023-04-11T20:59:26.382Z,8.63
2023-04-11T21:01:55.585Z,8.85
2023-04-11T21:04:22.616Z,8.77
2023-04-11T21:06:52.215Z,8.00
2023-04-11T21:09:19.072Z,8.73
2023-04-11T21:11:45.954Z,8.40
2023-04-11T21:14:12.752Z,8.40
2023-04-11T21:16:39.971Z,9.68
2023-04-11T21:19:06.859Z,8.60
2023-04-11T21:21:34.219Z,8.98
2023-04-11T21:24:01.979Z,8.20
2023-04-11T21:26:28.858Z,9.13
2023-04-11T21:28:56.090Z,9.77
2023-04-11T21:31:23.029Z,9.15
2023-04-11T21:33:49.918Z,9.85
2023-04-11T21:36:16.830Z,8.70
2023-04-11T21:38:43.722Z,8.95
2023-04-11T21:41:13.046Z,8.77
2023-04-11T21:43:41.049Z,8.60
2023-04-11T21:46:07.989Z,9.48
2023-04-11T21:48:35.351Z,8.52
2023-04-11T21:51:05.561Z,8.20
2023-04-11T21:53:32.398Z,8.55
2023-04-11T21:55:59.351Z,9.02
2023-04-11T21:58:29.817Z,8.38
2023-04-11T22:00:57.028Z,8.13
2023-04-11T22:03:24.346Z,9.45
2023-04-11T22:05:52.428Z,7.85
2023-04-11T22:08:22.587Z,8.60
2023-04-11T22:10:50.803Z,9.25
2023-04-11T22:13:19.546Z,9.00
2023-04-11T22:15:48.824Z,8.40
2023-04-11T22:18:15.803Z,8.45
2023-04-11T22:20:46.405Z,8.05
2023-04-11T22:23:13.830Z,8.32
2023-04-11T22:25:44.462Z,7.78
2023-04-11T22:28:20.766Z,8.60
2023-04-11T22:30:47.641Z,7.85
2023-04-11T22:33:14.860Z,7.78
2023-04-11T22:35:45.128Z,7.78
2023-04-11T22:38:12.087Z,7.80
2023-04-11T22:40:40.268Z,7.78
2023-04-11T22:43:07.291Z,7.90
2023-04-11T22:45:35.999Z,7.78
2023-04-11T22:48:04.396Z,8.18
2023-04-11T22:50:32.273Z,8.43
2023-04-11T22:53:02.048Z,8.07
2023-04-11T22:55:35.656Z,8.10
2023-04-11T22:58:03.104Z,8.00
2023-04-11T23:00:30.036Z,7.32
2023-04-11T23:02:59.613Z,7.45
2023-04-11T23:05:26.798Z,7.85
2023-04-11T23:07:53.700Z,8.00
2023-04-11T23:10:20.566Z,8.25
2023-04-11T23:12:48.110Z,8.52
2023-04-11T23:15:15.168Z,8.02
2023-04-11T23:17:42.082Z,8.55
2023-04-11T23:20:11.149Z,7.68
2023-04-11T23:22:38.373Z,8.93
2023-04-11T23:25:06.542Z,7.85
2023-04-11T23:27:33.412Z,8.00
2023-04-11T23:30:00.833Z,8.10
2023-04-11T23:32:30.190Z,9.05
2023-04-11T23:34:57.036Z,8.75
2023-04-11T23:37:25.271Z,8.15
2023-04-11T23:39:52.372Z,8.30
2023-04-11T23:42:19.204Z,8.98
2023-04-11T23:44:47.163Z,8.88
2023-04-11T23:47:13.950Z,8.35
2023-04-11T23:49:41.132Z,8.85
2023-04-11T23:52:08.204Z,8.45
2023-04-11T23:54:35.752Z,10.32
2023-04-11T23:57:03.065Z,10.65
2023-04-11T23:59:31.452Z,10.15
